Time;durP1;ratioP1;P1;durP2;ratioP2;P2;SDS_P1;SDS_P2;PMS_P1;PMS_P2;Temp;Humidity;BMP_temperature;BMP_pressure;BME280_temperature;BME280_humidity;BME280_pressure;Samples;Min_cycle;Max_cycle;Signal;HPM_P1;HPM_P2
2024/01/16 00:02:13;;;;;;;5.80;1.60;;;;;;;-0.83;100.00;98941.86;105303;1255;69201;-62
2024/01/16 00:04:42;;;;;;;5.80;2.40;;;;;;;-0.85;100.00;98946.50;105325;1257;74994;-62
2024/01/16 00:07:10;;;;;;;8.00;2.30;;;;;;;-0.87;100.00;98953.22;105379;1259;81403;-62
2024/01/16 00:09:38;;;;;;;6.20;2.70;;;;;;;-0.88;100.00;98963.00;105328;1256;72993;-62
2024/01/16 00:12:07;;;;;;;10.80;2.70;;;;;;;-0.88;100.00;98968.33;105391;1256;69199;-62
2024/01/16 00:14:36;;;;;;;7.00;2.30;;;;;;;-0.90;100.00;98969.88;105313;1259;69195;-62
2024/01/16 00:17:05;;;;;;;8.80;2.60;;;;;;;-0.92;100.00;98970.77;105361;1257;75293;-62
2024/01/16 00:19:33;;;;;;;6.90;2.30;;;;;;;-0.93;100.00;98979.17;105325;1257;80558;-61
2024/01/16 00:22:04;;;;;;;6.20;2.00;;;;;;;-0.93;100.00;98981.25;105324;1259;73302;-61
2024/01/16 00:24:32;;;;;;;;;;;;;;;-0.93;100.00;98986.21;105347;1256;69166;-62
2024/01/16 00:27:00;;;;;;;7.60;2.20;;;;;;;-0.96;100.00;98988.65;105301;1259;69111;-62
2024/01/16 00:29:30;;;;;;;6.50;2.20;;;;;;;-0.97;100.00;98993.98;105321;1257;72575;-62
2024/01/16 00:31:58;;;;;;;6.30;2.30;;;;;;;-1.00;100.00;99003.13;105380;1259;81432;-62
2024/01/16 00:34:27;;;;;;;7.20;1.90;;;;;;;-1.01;100.00;99008.09;105425;1257;72275;-61
2024/01/16 00:36:55;;;;;;;4.10;1.90;;;;;;;-1.05;100.00;99012.95;105295;1257;69115;-61
2024/01/16 00:39:23;;;;;;;6.00;2.60;;;;;;;-1.06;100.00;99018.79;105299;1256;69198;-61
2024/01/16 00:41:51;;;;;;;7.70;2.50;;;;;;;-1.09;99.98;99022.78;105271;1256;72777;-61
2024/01/16 00:44:19;;;;;;;4.80;2.10;;;;;;;-1.12;99.97;99021.25;105350;1259;81688;-61
2024/01/16 00:46:47;;;;;;;3.90;1.50;;;;;;;-1.14;99.92;99021.80;105282;1257;72231;-61
2024/01/16 00:49:16;;;;;;;6.30;2.10;;;;;;;-1.18;99.98;99018.92;105290;1255;69135;-61
2024/01/16 00:51:48;;;;;;;8.60;2.80;;;;;;;-1.19;99.97;99012.26;105291;1258;69189;-61
2024/01/16 00:54:16;;;;;;;5.30;2.10;;;;;;;-1.21;99.93;99017.93;105297;1258;73725;-61
2024/01/16 00:56:44;;;;;;;6.80;1.90;;;;;;;-1.24;99.88;99023.12;105274;1257;82751;-61
2024/01/16 00:59:13;;;;;;;6.40;1.60;;;;;;;-1.28;99.80;99029.16;105325;1259;73034;-61
2024/01/16 01:01:41;;;;;;;5.70;2.30;;;;;;;-1.33;99.62;99030.76;105294;1259;69173;-61
2024/01/16 01:04:09;;;;;;;8.70;2.20;;;;;;;-1.38;99.54;99026.00;105319;1257;69202;-61
2024/01/16 01:06:38;;;;;;;6.30;2.90;;;;;;;-1.40;99.50;99032.20;105361;1256;73866;-61
2024/01/16 01:09:06;;;;;;;7.30;2.50;;;;;;;-1.44;99.37;99032.58;105340;1259;81810;-60
2024/01/16 01:11:35;;;;;;;6.90;2.20;;;;;;;-1.46;99.23;99037.41;105326;1256;71641;-60
2024/01/16 01:14:03;;;;;;;6.10;2.80;;;;;;;-1.50;99.04;99042.06;105416;1259;69124;-62
2024/01/16 01:16:32;;;;;;;6.00;2.70;;;;;;;-1.53;98.87;99043.13;105346;1256;69131;-62
2024/01/16 01:19:00;;;;;;;8.70;2.80;;;;;;;-1.57;98.88;99043.67;105342;1257;73800;-61
2024/01/16 01:21:29;;;;;;;4.40;2.50;;;;;;;-1.60;98.76;99047.98;105340;1259;81515;-61
2024/01/16 01:23:57;;;;;;;8.80;3.10;;;;;;;-1.63;98.79;99058.98;105352;1256;70454;-61
2024/01/16 01:26:25;;;;;;;7.90;3.50;;;;;;;-1.65;98.72;99064.47;105330;1257;69185;-61
2024/01/16 01:28:53;;;;;;;9.60;2.40;;;;;;;-1.67;98.58;99075.30;105309;1257;69228;-61
2024/01/16 01:31:22;;;;;;;4.00;1.50;;;;;;;-1.70;98.51;99079.77;105311;1259;72406;-61
2024/01/16 01:33:51;;;;;;;4.20;1.70;;;;;;;-1.69;98.62;99079.07;105327;1257;83758;-61
2024/01/16 01:36:19;;;;;;;9.60;3.90;;;;;;;-1.68;98.72;99083.17;105298;1256;71359;-61
2024/01/16 01:38:47;;;;;;;5.40;2.60;;;;;;;-1.69;98.57;99083.52;105315;1257;69308;-61
2024/01/16 01:41:16;;;;;;;4.90;1.70;;;;;;;-1.70;98.64;99084.57;105295;1257;69649;-61
2024/01/16 01:43:45;;;;;;;6.30;1.70;;;;;;;-1.72;98.51;99085.42;105304;1259;74046;-61
2024/01/16 01:46:16;;;;;;;3.60;1.50;;;;;;;-1.72;98.73;99085.27;105358;1258;81989;-61
2024/01/16 01:48:47;;;;;;;3.40;1.40;;;;;;;-1.72;98.58;99086.11;105282;1255;71901;-61
2024/01/16 01:51:19;;;;;;;5.80;1.40;;;;;;;-1.74;98.50;99089.91;105304;1259;69102;-61
2024/01/16 01:53:49;;;;;;;6.80;1.80;;;;;;;-1.74;98.57;99093.34;105320;1257;69138;-61
2024/01/16 01:56:19;;;;;;;5.80;1.70;;;;;;;-1.76;98.47;99095.57;105316;1256;74060;-61
2024/01/16 01:58:49;;;;;;;6.80;2.10;;;;;;;-1.77;98.69;99092.34;105398;1257;82044;-61
2024/01/16 02:01:19;;;;;;;5.60;3.00;;;;;;;-1.76;98.54;99095.41;105442;1256;71400;-61
2024/01/16 02:03:47;;;;;;;8.60;3.40;;;;;;;-1.78;98.37;99104.67;105417;1259;69189;-61
2024/01/16 02:06:16;;;;;;;16.00;5.60;;;;;;;-1.77;98.55;99102.61;105342;1256;69225;-60
2024/01/16 02:08:45;;;;;;;10.70;4.20;;;;;;;-1.73;98.85;99104.80;105383;1257;73409;-60
2024/01/16 02:11:13;;;;;;;11.00;4.30;;;;;;;-1.68;98.84;99101.67;105384;1257;80408;-61
2024/01/16 02:13:42;;;;;;;9.40;4.10;;;;;;;-1.65;98.79;99105.08;105284;1257;71672;-61
2024/01/16 02:16:26;;;;;;;9.00;3.40;;;;;;;-1.63;98.90;99111.21;105306;1259;69150;-61
2024/01/16 02:18:55;;;;;;;10.00;4.00;;;;;;;-1.61;98.89;99115.66;105292;1257;69231;-60
2024/01/16 02:21:28;;;;;;;8.80;4.10;;;;;;;-1.60;98.77;99118.91;105405;1256;74286;-61
2024/01/16 02:23:56;;;;;;;9.70;3.90;;;;;;;-1.58;98.57;99113.73;105381;1259;81489;-61
2024/01/16 02:26:24;;;;;;;9.00;3.80;;;;;;;-1.55;98.60;99114.74;105182;1260;72396;-61
2024/01/16 02:28:52;;;;;;;13.10;4.20;;;;;;;-1.54;98.78;99118.00;105301;1259;69198;-61
2024/01/16 02:31:21;;;;;;;9.00;2.90;;;;;;;-1.53;98.67;99117.98;105323;1259;69186;-60
2024/01/16 02:33:49;;;;;;;9.80;2.10;;;;;;;-1.53;98.69;99122.44;105285;1257;74060;-60
2024/01/16 02:36:18;;;;;;;7.80;2.20;;;;;;;-1.50;98.82;99129.27;105249;1256;82556;-61
2024/01/16 02:38:46;;;;;;;9.20;2.90;;;;;;;-1.48;98.75;99133.70;105280;1257;71894;-61
2024/01/16 02:41:15;;;;;;;3.80;1.70;;;;;;;-1.49;98.42;99137.99;105253;1259;69120;-60
2024/01/16 02:43:44;;;;;;;;;;;;;;;-1.49;98.38;99143.66;105333;1256;69173;-60
2024/01/16 02:46:14;;;;;;;5.10;1.50;;;;;;;-1.49;98.39;99141.27;105310;1257;74800;-60
2024/01/16 02:48:43;;;;;;;5.30;1.30;;;;;;;-1.48;98.47;99147.75;105454;1257;80866;-61
2024/01/16 02:51:11;;;;;;;6.50;1.50;;;;;;;-1.47;98.39;99154.25;105286;1257;71672;-62
2024/01/16 02:53:39;;;;;;;6.90;1.80;;;;;;;-1.47;98.35;99153.40;105383;1257;69132;-63
2024/01/16 02:56:08;;;;;;;4.40;2.00;;;;;;;-1.49;98.43;99157.36;105380;1257;69189;-62
2024/01/16 02:58:37;;;;;;;6.50;1.60;;;;;;;-1.49;98.26;99159.24;105334;1257;72048;-60
2024/01/16 03:01:05;;;;;;;4.40;1.80;;;;;;;-1.50;98.24;99158.04;105311;1259;81585;-59
2024/01/16 03:03:33;;;;;;;5.10;1.80;;;;;;;-1.49;98.23;99157.70;105219;1257;72050;-59
2024/01/16 03:06:02;;;;;;;4.80;2.10;;;;;;;-1.48;98.36;99157.52;105267;1259;69122;-59
2024/01/16 03:08:30;;;;;;;5.20;2.10;;;;;;;-1.47;98.40;99154.44;105323;1259;69224;-59
2024/01/16 03:10:58;;;;;;;5.30;2.50;;;;;;;-1.47;98.43;99151.01;105244;1257;74098;-59
2024/01/16 03:13:27;;;;;;;4.40;2.40;;;;;;;-1.46;98.35;99149.11;105283;1259;81567;-59
2024/01/16 03:15:55;;;;;;;7.60;2.50;;;;;;;-1.47;98.34;99158.73;105364;1257;71361;-59
2024/01/16 03:18:23;;;;;;;6.50;2.50;;;;;;;-1.48;98.30;99162.31;105352;1255;69140;-59
2024/01/16 03:20:52;;;;;;;7.40;2.50;;;;;;;-1.51;98.29;99169.20;105387;1259;69278;-59
2024/01/16 03:23:20;;;;;;;7.30;2.40;;;;;;;-1.50;98.37;99170.21;105414;1256;73874;-57
2024/01/16 03:25:48;;;;;;;7.30;2.50;;;;;;;-1.48;98.44;99168.84;105301;1259;81413;-58
2024/01/16 03:28:16;;;;;;;4.90;2.20;;;;;;;-1.47;98.62;99168.30;105268;1257;72621;-58
2024/01/16 03:30:44;;;;;;;6.70;2.50;;;;;;;-1.46;98.67;99173.10;105236;1258;69278;-58
2024/01/16 03:33:13;;;;;;;10.80;5.00;;;;;;;-1.46;98.66;99172.08;105338;1259;69276;-58
2024/01/16 03:35:41;;;;;;;8.00;2.50;;;;;;;-1.46;98.66;99177.91;105310;1257;73835;-58
2024/01/16 03:38:09;;;;;;;5.90;2.10;;;;;;;-1.46;98.65;99191.27;105306;1258;81739;-58
2024/01/16 03:40:38;;;;;;;6.50;2.30;;;;;;;-1.46;98.56;99193.66;105302;1257;71727;-58
2024/01/16 03:43:06;;;;;;;7.20;2.20;;;;;;;-1.46;98.71;99198.80;105309;1259;69122;-58
2024/01/16 03:45:34;;;;;;;7.00;2.50;;;;;;;-1.45;98.86;99201.52;105310;1259;69112;-58
2024/01/16 03:48:03;;;;;;;7.30;2.90;;;;;;;-1.46;98.77;99206.51;105346;1257;72610;-58
2024/01/16 03:50:31;;;;;;;4.50;2.20;;;;;;;-1.45;99.07;99202.55;105350;1257;80941;-58
2024/01/16 03:53:00;;;;;;;6.90;2.30;;;;;;;-1.46;98.95;99202.73;105295;1256;71597;-58
2024/01/16 03:55:28;;;;;;;7.50;2.40;;;;;;;-1.45;99.10;99198.78;105227;1257;69161;-58
2024/01/16 03:57:56;;;;;;;9.30;2.10;;;;;;;-1.43;99.19;99190.20;105288;1259;69157;-58
2024/01/16 04:00:24;;;;;;;7.30;2.00;;;;;;;-1.43;99.20;99194.15;105338;1257;73554;-59
2024/01/16 04:02:52;;;;;;;4.30;1.50;;;;;;;-1.44;99.09;99201.16;105238;1259;81846;-59
2024/01/16 04:05:21;;;;;;;8.10;2.20;;;;;;;-1.45;99.08;99203.23;105321;1258;73419;-59
2024/01/16 04:07:49;;;;;;;4.00;1.50;;;;;;;-1.47;99.10;99211.14;105128;1260;69198;-59
2024/01/16 04:10:18;;;;;;;3.80;1.50;;;;;;;-1.49;99.13;99224.02;105318;1259;69176;-59
2024/01/16 04:12:46;;;;;;;4.40;1.60;;;;;;;-1.49;99.19;99222.80;105290;1259;73992;-59
2024/01/16 04:15:14;;;;;;;4.90;1.40;;;;;;;-1.51;99.18;99222.13;105307;1257;81473;-59
2024/01/16 04:17:42;;;;;;;6.70;1.70;;;;;;;-1.56;99.27;99223.54;105244;1257;70215;-58
2024/01/16 04:20:11;;;;;;;5.70;1.80;;;;;;;-1.58;99.36;99231.43;105270;1259;69144;-59
2024/01/16 04:22:39;;;;;;;5.90;2.40;;;;;;;-1.60;99.44;99233.68;105406;1257;69193;-59
2024/01/16 04:25:07;;;;;;;5.60;1.70;;;;;;;-1.61;99.55;99230.27;105403;1259;73023;-59
2024/01/16 04:27:35;;;;;;;6.40;2.20;;;;;;;-1.65;99.30;99231.64;105244;1258;81704;-61
2024/01/16 04:30:04;;;;;;;7.30;1.90;;;;;;;-1.70;99.41;99235.45;105326;1259;70998;-58
2024/01/16 04:32:32;;;;;;;9.70;3.80;;;;;;;-1.74;99.48;99239.41;105371;1257;69188;-61
2024/01/16 04:35:01;;;;;;;8.60;4.40;;;;;;;-1.78;99.60;99239.77;105364;1256;69204;-59
2024/01/16 04:37:29;;;;;;;12.90;4.60;;;;;;;-1.81;99.81;99246.29;105309;1257;75391;-59
2024/01/16 04:39:59;;;;;;;13.90;6.10;;;;;;;-1.81;99.78;99252.64;105283;1259;81707;-59
2024/01/16 04:42:27;;;;;;;12.40;5.40;;;;;;;-1.84;99.95;99251.95;105338;1257;70325;-59
2024/01/16 04:44:55;;;;;;;6.10;2.20;;;;;;;-1.85;99.81;99251.64;105244;1258;69197;-59
2024/01/16 04:47:23;;;;;;;10.20;3.40;;;;;;;-1.88;99.85;99249.77;105326;1256;69075;-59
2024/01/16 04:49:52;;;;;;;18.50;7.40;;;;;;;-1.91;99.86;99246.34;105343;1256;73839;-59
2024/01/16 04:52:20;;;;;;;13.50;4.40;;;;;;;-1.93;99.92;99244.31;105270;1259;83441;-59
2024/01/16 04:54:48;;;;;;;13.80;4.50;;;;;;;-1.96;99.90;99244.84;105274;1257;72316;-59
2024/01/16 04:57:16;;;;;;;13.40;3.90;;;;;;;-1.99;99.88;99248.62;105333;1259;69582;-59
2024/01/16 04:59:44;;;;;;;12.90;5.00;;;;;;;-2.02;99.80;99259.08;105269;1256;69214;-59
2024/01/16 05:02:14;;;;;;;11.90;4.80;;;;;;;-2.05;99.92;99272.61;105319;1255;74757;-58
2024/01/16 05:04:42;;;;;;;12.10;4.40;;;;;;;-2.06;99.96;99279.12;105282;1259;82594;-59
2024/01/16 05:07:10;;;;;;;6.40;2.20;;;;;;;-2.09;99.96;99283.23;105332;1257;72202;-59
2024/01/16 05:09:38;;;;;;;4.70;1.90;;;;;;;-2.10;100.00;99284.79;105274;1259;69157;-60
2024/01/16 05:12:07;;;;;;;4.40;2.10;;;;;;;-2.11;100.00;99281.52;105274;1259;69143;-60
2024/01/16 05:14:35;;;;;;;2.90;1.50;;;;;;;-2.11;100.00;99274.17;105362;1259;74341;-58
2024/01/16 05:17:03;;;;;;;5.70;2.00;;;;;;;-2.13;100.00;99276.59;105187;1259;82976;-59
2024/01/16 05:19:32;;;;;;;4.70;1.30;;;;;;;-2.16;100.00;99284.13;105373;1259;72820;-60
2024/01/16 05:22:00;;;;;;;4.30;1.40;;;;;;;-2.18;100.00;99288.23;105586;1257;69081;-58
2024/01/16 05:24:29;;;;;;;2.90;1.20;;;;;;;-2.17;100.00;99286.69;105201;1259;69512;-58
2024/01/16 05:26:57;;;;;;;1.60;0.70;;;;;;;-2.17;100.00;99283.61;105466;1259;74129;-59
2024/01/16 05:29:25;;;;;;;1.60;0.70;;;;;;;-2.19;100.00;99277.96;105373;1259;82149;-59
2024/01/16 05:31:53;;;;;;;1.90;0.60;;;;;;;-2.23;100.00;99272.16;105172;1257;73681;-58
2024/01/16 05:34:21;;;;;;;1.80;0.50;;;;;;;-2.25;100.00;99269.43;105233;1256;69153;-58
2024/01/16 05:36:49;;;;;;;3.30;1.00;;;;;;;-2.26;100.00;99272.85;105206;1257;69260;-58
2024/01/16 05:39:18;;;;;;;5.60;1.50;;;;;;;-2.29;99.95;99271.67;105469;1255;74126;-59
2024/01/16 05:41:46;;;;;;;5.90;1.50;;;;;;;-2.33;99.95;99281.60;105160;1261;83967;-59
2024/01/16 05:44:15;;;;;;;5.30;1.70;;;;;;;-2.34;100.00;99286.06;105234;1261;72054;-58
2024/01/16 05:46:44;;;;;;;6.80;2.10;;;;;;;-2.38;100.00;99289.31;105431;1262;69132;-58
2024/01/16 05:49:12;;;;;;;10.50;3.30;;;;;;;-2.41;99.89;99297.20;105371;1256;69093;-57
2024/01/16 05:51:41;;;;;;;7.30;2.90;;;;;;;-2.46;99.78;99302.17;105237;1256;73843;-58
2024/01/16 05:54:09;;;;;;;8.10;3.00;;;;;;;-2.51;99.58;99308.51;105181;1261;82009;-57
2024/01/16 05:56:37;;;;;;;12.10;4.80;;;;;;;-2.54;99.48;99316.39;105183;1257;72139;-58
2024/01/16 05:59:06;;;;;;;4.60;1.20;;;;;;;-2.55;99.64;99326.63;105319;1261;69256;-57
2024/01/16 06:01:35;;;;;;;3.40;1.10;;;;;;;-2.57;99.74;99323.40;105469;1257;69177;-58
2024/01/16 06:04:03;;;;;;;2.70;1.10;;;;;;;-2.58;99.79;99328.52;105320;1256;73785;-59
2024/01/16 06:06:33;;;;;;;1.60;0.70;;;;;;;-2.57;99.88;99327.33;105331;1257;81968;-60
2024/01/16 06:09:05;;;;;;;4.60;2.60;;;;;;;-2.61;99.56;99339.98;105488;1256;71857;-59
2024/01/16 06:11:34;;;;;;;3.40;1.60;;;;;;;-2.64;99.50;99340.16;105262;1257;69077;-59
2024/01/16 06:14:02;;;;;;;4.00;1.50;;;;;;;-2.70;99.12;99344.27;105278;1262;69078;-60
2024/01/16 06:16:31;;;;;;;5.50;2.40;;;;;;;-2.78;98.49;99352.82;105321;1257;74165;-59
2024/01/16 06:18:59;;;;;;;3.90;1.20;;;;;;;-2.84;98.48;99357.94;105216;1257;81389;-58
2024/01/16 06:21:27;;;;;;;1.10;0.80;;;;;;;-2.87;98.70;99360.16;105296;1257;71858;-59
2024/01/16 06:23:55;;;;;;;1.20;0.70;;;;;;;-2.95;98.16;99364.44;105276;1257;69177;-59
2024/01/16 06:26:24;;;;;;;5.40;1.20;;;;;;;-3.04;97.97;99372.29;105251;1257;69177;-59
2024/01/16 06:28:52;;;;;;;9.10;2.30;;;;;;;-3.14;97.47;99381.34;105231;1257;74816;-55
2024/01/16 06:31:20;;;;;;;6.20;1.30;;;;;;;-3.21;97.86;99384.39;105212;1260;83791;-54
2024/01/16 06:33:49;;;;;;;3.30;1.10;;;;;;;-3.26;97.80;99388.99;105326;1260;72950;-58
2024/01/16 06:36:17;;;;;;;2.70;0.90;;;;;;;-3.32;97.75;99386.77;105162;1260;69122;-58
2024/01/16 06:38:45;;;;;;;6.10;2.10;;;;;;;-3.38;97.85;99392.38;105210;1261;69161;-59
2024/01/16 06:41:14;;;;;;;25.10;8.20;;;;;;;-3.41;97.82;99398.52;105251;1257;74306;-59
2024/01/16 06:43:42;;;;;;;67.90;25.10;;;;;;;-3.47;97.90;99399.86;105280;1260;81989;-58
2024/01/16 06:46:10;;;;;;;28.70;11.00;;;;;;;-3.50;98.21;99402.77;105197;1260;73854;-58
2024/01/16 06:48:39;;;;;;;6.90;3.10;;;;;;;-3.52;98.36;99405.31;105340;1256;69208;-58
2024/01/16 06:51:08;;;;;;;5.90;2.20;;;;;;;-3.61;97.79;99411.59;105178;1261;69110;-59
2024/01/16 06:53:37;;;;;;;2.40;1.10;;;;;;;-3.64;98.36;99418.73;105403;1260;73415;-58
2024/01/16 06:56:08;;;;;;;4.70;1.10;;;;;;;-3.70;98.14;99434.09;105333;1257;83258;-58
2024/01/16 06:58:37;;;;;;;7.60;2.80;;;;;;;-3.70;98.74;99434.09;105215;1257;73135;-58
2024/01/16 07:01:05;;;;;;;12.80;4.30;;;;;;;-3.72;98.46;99441.59;105301;1262;69195;-58
2024/01/16 07:03:33;;;;;;;13.60;4.40;;;;;;;-3.80;98.17;99442.56;105181;1258;69174;-58
2024/01/16 07:06:02;;;;;;;6.30;2.10;;;;;;;-3.85;98.28;99443.05;105171;1257;74300;-59
2024/01/16 07:08:31;;;;;;;3.70;1.70;;;;;;;-3.87;98.63;99454.48;105730;1260;81682;-58
2024/01/16 07:10:59;;;;;;;3.80;2.10;;;;;;;-3.92;98.33;99466.40;105261;1259;71950;-56
2024/01/16 07:13:27;;;;;;;8.10;2.80;;;;;;;-3.96;98.57;99475.09;105184;1259;69133;-54
2024/01/16 07:15:55;;;;;;;9.90;3.40;;;;;;;-3.97;98.65;99476.42;105725;1257;69191;-53
2024/01/16 07:18:23;;;;;;;4.40;1.90;;;;;;;-3.98;98.84;99480.70;105247;1260;72213;-54
2024/01/16 07:20:52;;;;;;;6.70;2.40;;;;;;;-3.92;99.33;99487.73;105154;1262;81876;-54
2024/01/16 07:23:20;;;;;;;8.00;3.20;;;;;;;-3.89;99.31;99493.89;105226;1261;72524;-52
2024/01/16 07:25:48;;;;;;;5.60;3.00;;;;;;;-3.91;99.03;99499.34;105290;1257;69061;-54
2024/01/16 07:28:17;;;;;;;9.00;5.60;;;;;;;-3.89;99.25;99502.60;105238;1262;69190;-56
2024/01/16 07:30:45;;;;;;;8.90;4.80;;;;;;;-3.84;99.51;99506.38;105168;1256;74325;-55
2024/01/16 07:33:13;;;;;;;11.60;4.30;;;;;;;-3.78;99.89;99513.42;105162;1260;82504;-56
2024/01/16 07:35:43;;;;;;;7.90;4.00;;;;;;;-3.74;99.81;99513.29;105195;1257;71751;-57
2024/01/16 07:38:12;;;;;;;7.20;3.70;;;;;;;-3.72;99.66;99514.15;105298;1261;69353;-56
2024/01/16 07:40:40;;;;;;;9.20;3.60;;;;;;;-3.69;99.70;99517.41;105382;1260;69177;-57
2024/01/16 07:43:08;;;;;;;6.70;3.00;;;;;;;-3.65;99.56;99526.48;105203;1257;73594;-57
2024/01/16 07:45:36;;;;;;;6.90;3.20;;;;;;;-3.64;99.45;99526.84;105444;1260;81719;-58
2024/01/16 07:48:05;;;;;;;4.90;2.70;;;;;;;-3.59;99.52;99535.73;105194;1257;71874;-58
2024/01/16 07:50:33;;;;;;;6.40;3.70;;;;;;;-3.54;99.79;99547.89;105193;1260;69171;-55
2024/01/16 07:53:02;;;;;;;13.90;7.00;;;;;;;-3.48;99.96;99562.79;105231;1259;69109;-57
2024/01/16 07:55:30;;;;;;;11.10;5.30;;;;;;;-3.37;100.00;99558.93;105153;1261;75017;-57
2024/01/16 07:57:58;;;;;;;9.90;4.70;;;;;;;-3.25;100.00;99562.92;105245;1262;81697;-55
2024/01/16 08:00:27;;;;;;;9.80;5.60;;;;;;;-3.15;100.00;99564.50;105184;1257;73442;-56
2024/01/16 08:02:55;;;;;;;12.20;5.20;;;;;;;-3.06;100.00;99561.98;105242;1257;69171;-56
2024/01/16 08:05:27;;;;;;;13.90;5.30;;;;;;;-2.99;100.00;99562.52;105322;1259;69208;-56
2024/01/16 08:07:57;;;;;;;10.20;4.90;;;;;;;-2.92;100.00;99564.95;105211;1257;73725;-57
2024/01/16 08:10:26;;;;;;;11.30;4.90;;;;;;;-2.84;100.00;99563.77;105256;1257;81761;-57
2024/01/16 08:12:54;;;;;;;11.50;4.80;;;;;;;-2.75;100.00;99572.52;105186;1260;73211;-56
2024/01/16 08:15:22;;;;;;;7.10;3.40;;;;;;;-2.65;100.00;99580.45;105147;1256;69141;-57
2024/01/16 08:17:50;;;;;;;5.80;2.60;;;;;;;-2.56;100.00;99576.02;105196;1262;69198;-56
2024/01/16 08:20:18;;;;;;;36.40;17.90;;;;;;;-2.50;100.00;99579.46;105122;1260;74295;-56
2024/01/16 08:22:47;;;;;;;45.90;23.30;;;;;;;-2.46;100.00;99582.20;105172;1260;82624;-57
2024/01/16 08:25:15;;;;;;;19.40;10.70;;;;;;;-2.43;100.00;99581.19;105145;1260;71938;-55
2024/01/16 08:27:43;;;;;;;9.80;5.40;;;;;;;-2.39;100.00;99586.67;105219;1256;69145;-56
2024/01/16 08:30:12;;;;;;;8.00;5.00;;;;;;;-2.32;100.00;99591.30;105150;1257;69206;-56
2024/01/16 08:32:40;;;;;;;7.60;5.20;;;;;;;-2.25;100.00;99594.39;105206;1257;73566;-57
2024/01/16 08:35:09;;;;;;;8.30;4.90;;;;;;;-2.15;100.00;99593.21;105184;1262;82884;-57
2024/01/16 08:37:37;;;;;;;10.40;4.70;;;;;;;-2.07;100.00;99595.29;105347;1260;71681;-56
2024/01/16 08:40:06;;;;;;;8.30;4.30;;;;;;;-1.97;100.00;99598.88;105170;1257;69182;-57
2024/01/16 08:42:34;;;;;;;7.70;3.50;;;;;;;-1.89;100.00;99599.57;105179;1256;69068;-57
2024/01/16 08:45:05;;;;;;;7.40;3.80;;;;;;;-1.83;100.00;99589.13;105233;1256;74842;-58
2024/01/16 08:47:33;;;;;;;16.70;7.60;;;;;;;-1.74;100.00;99589.64;105193;1258;81034;-58
2024/01/16 08:50:02;;;;;;;28.10;13.50;;;;;;;-1.67;100.00;99591.69;105222;1258;72076;-58
2024/01/16 08:52:30;;;;;;;25.40;11.40;;;;;;;-1.59;100.00;99599.05;105270;1262;69208;-57
2024/01/16 08:54:59;;;;;;;9.40;5.00;;;;;;;-1.51;100.00;99605.39;105161;1256;69120;-58
2024/01/16 08:57:27;;;;;;;8.30;4.10;;;;;;;-1.45;100.00;99606.57;105198;1262;72815;-58
2024/01/16 08:59:57;;;;;;;;;;;;;;;-1.44;100.00;99607.27;105150;1262;82930;-58
2024/01/16 09:02:30;;;;;;;6.10;3.50;;;;;;;-1.40;100.00;99604.69;105139;1261;72440;-58
2024/01/16 09:04:58;;;;;;;5.40;2.90;;;;;;;-1.39;100.00;99602.27;105161;1263;69159;-58
2024/01/16 09:07:27;;;;;;;8.90;4.10;;;;;;;-1.40;100.00;99597.66;105284;1257;69180;-58
2024/01/16 09:09:56;;;;;;;7.60;3.60;;;;;;;-1.42;100.00;99595.61;105261;1256;73602;-58
2024/01/16 09:12:24;;;;;;;8.50;4.20;;;;;;;-1.42;100.00;99602.30;105140;1261;81601;-58
2024/01/16 09:14:52;;;;;;;7.30;2.80;;;;;;;-1.34;100.00;99610.17;105098;1257;72616;-57
2024/01/16 09:17:20;;;;;;;5.10;2.90;;;;;;;-1.28;100.00;99614.27;105424;1261;69151;-58
2024/01/16 09:19:49;;;;;;;8.70;3.50;;;;;;;-1.24;100.00;99615.46;105181;1262;69211;-60
2024/01/16 09:22:17;;;;;;;6.90;3.30;;;;;;;-1.21;100.00;99616.14;105329;1260;75056;-57
2024/01/16 09:24:46;;;;;;;5.80;3.70;;;;;;;-1.14;100.00;99608.59;105203;1257;82573;-59
2024/01/16 09:27:16;;;;;;;6.90;3.40;;;;;;;-1.07;100.00;99609.60;105182;1257;71765;-59
2024/01/16 09:29:44;;;;;;;8.40;3.20;;;;;;;-1.02;100.00;99621.41;105189;1261;69119;-57
2024/01/16 09:32:13;;;;;;;11.80;4.60;;;;;;;-1.02;100.00;99621.58;105209;1261;69732;-57
2024/01/16 09:34:41;;;;;;;10.90;6.10;;;;;;;-1.03;100.00;99623.80;105193;1257;73634;-57
2024/01/16 09:37:09;;;;;;;13.80;6.30;;;;;;;-1.05;100.00;99620.56;105216;1260;81737;-57
2024/01/16 09:39:37;;;;;;;9.90;4.60;;;;;;;-1.05;99.99;99619.54;105176;1261;71793;-57
2024/01/16 09:42:06;;;;;;;8.00;4.00;;;;;;;-1.05;99.87;99619.70;105134;1260;69214;-57
2024/01/16 09:44:34;;;;;;;11.20;4.80;;;;;;;-0.95;99.88;99620.90;105159;1260;69145;-57
2024/01/16 09:47:03;;;;;;;10.80;5.10;;;;;;;-0.84;99.76;99618.27;105176;1257;73935;-57
2024/01/16 09:49:31;;;;;;;9.30;4.70;;;;;;;-0.75;99.73;99620.65;105217;1260;82499;-57
2024/01/16 09:52:01;;;;;;;11.00;4.90;;;;;;;-0.71;99.64;99631.95;105110;1260;71735;-57
2024/01/16 09:54:30;;;;;;;12.70;4.80;;;;;;;-0.73;99.36;99639.34;105127;1257;69187;-57
2024/01/16 09:56:58;;;;;;;11.80;5.80;;;;;;;-0.82;99.13;99641.09;105129;1260;69167;-57
2024/01/16 09:59:29;;;;;;;10.60;5.20;;;;;;;-0.87;99.07;99648.64;105207;1260;73717;-57
2024/01/16 10:01:58;;;;;;;9.30;4.70;;;;;;;-0.88;99.45;99653.45;105206;1261;80800;-56
2024/01/16 10:04:27;;;;;;;8.80;4.80;;;;;;;-0.90;99.28;99660.83;105196;1262;73156;-57
2024/01/16 10:06:57;;;;;;;16.80;7.60;;;;;;;-0.95;99.04;99656.39;105300;1256;69116;-56
2024/01/16 10:09:26;;;;;;;18.20;9.00;;;;;;;-0.97;99.12;99657.74;105134;1257;69231;-57
2024/01/16 10:11:54;;;;;;;9.60;5.30;;;;;;;-0.94;99.19;99652.61;105165;1263;73740;-56
2024/01/16 10:14:23;;;;;;;9.80;4.60;;;;;;;-0.93;99.10;99656.20;105189;1257;79876;-57
2024/01/16 10:17:05;;;;;;;9.10;5.70;;;;;;;-0.86;99.38;99653.43;105176;1263;72606;-56
2024/01/16 10:19:34;;;;;;;8.80;5.80;;;;;;;-0.82;99.53;99659.25;105212;1262;69195;-57
2024/01/16 10:22:20;;;;;;;9.90;5.90;;;;;;;-0.82;99.44;99661.50;105257;1261;69138;-57
2024/01/16 10:25:11;;;;;;;7.30;3.80;;;;;;;-0.83;99.33;99671.95;105201;1257;74220;-57
2024/01/16 10:27:40;;;;;;;7.90;3.50;;;;;;;-0.91;98.94;99681.75;105176;1256;81406;-57
2024/01/16 10:30:12;;;;;;;6.50;3.20;;;;;;;-0.96;99.07;99684.68;105188;1262;73013;-57
2024/01/16 10:32:42;;;;;;;5.40;3.00;;;;;;;-0.96;99.37;99686.21;105240;1267;69150;-58
2024/01/16 10:35:12;;;;;;;7.20;3.50;;;;;;;-0.95;99.20;99684.67;105243;1260;69192;-57
2024/01/16 10:37:43;;;;;;;5.90;3.20;;;;;;;-0.97;99.20;99681.25;105206;1261;73518;-57
2024/01/16 10:40:25;;;;;;;7.20;3.50;;;;;;;-0.99;99.16;99678.34;105206;1260;80832;-57
2024/01/16 10:43:04;;;;;;;6.90;3.60;;;;;;;-0.94;99.52;99678.16;104929;1260;304775;-57
2024/01/16 10:45:33;;;;;;;8.90;3.90;;;;;;;-0.91;99.37;99686.39;105094;1262;69300;-57
2024/01/16 10:48:03;;;;;;;8.40;4.40;;;;;;;-0.91;99.28;99690.85;105293;1262;69213;-57
2024/01/16 10:50:32;;;;;;;;;;;;;;;-0.87;99.29;99687.76;105219;1260;75024;-58
2024/01/16 10:53:05;;;;;;;9.20;4.00;;;;;;;-0.82;99.13;99684.31;105355;1257;81743;-59
2024/01/16 10:55:53;;;;;;;7.80;3.70;;;;;;;-0.80;99.15;99688.24;105163;1262;71619;-59
2024/01/16 10:58:22;;;;;;;10.50;5.10;;;;;;;-0.76;99.17;99693.73;105347;1256;69160;-59
2024/01/16 11:00:56;;;;;;;10.80;5.30;;;;;;;-0.72;99.29;99693.20;105245;1263;69088;-59
2024/01/16 11:03:46;;;;;;;14.30;5.40;;;;;;;-0.68;99.31;99699.70;105162;1257;72882;-59
2024/01/16 11:06:16;;;;;;;13.50;5.60;;;;;;;-0.63;99.25;99702.78;105175;1260;82699;-59
2024/01/16 11:08:48;;;;;;;15.80;6.00;;;;;;;-0.59;99.24;99704.83;105144;1259;72606;-58
2024/01/16 11:11:17;;;;;;;12.90;5.20;;;;;;;-0.56;99.23;99701.91;105187;1257;69190;-53
2024/01/16 11:13:46;;;;;;;21.80;9.00;;;;;;;-0.53;99.12;99700.52;105102;1261;69186;-59
2024/01/16 11:16:15;;;;;;;14.70;6.50;;;;;;;-0.50;98.99;99701.38;105186;1262;73038;-56
2024/01/16 11:18:44;;;;;;;10.50;5.20;;;;;;;-0.46;99.04;99704.96;105150;1263;82955;-57
2024/01/16 11:21:14;;;;;;;10.30;5.30;;;;;;;-0.42;99.04;99706.50;105203;1260;72819;-57
2024/01/16 11:23:46;;;;;;;8.20;4.90;;;;;;;-0.37;98.83;99703.21;105121;1260;69216;-56
2024/01/16 11:26:28;;;;;;;10.90;4.50;;;;;;;-0.36;98.61;99699.44;105242;1257;69238;-61
2024/01/16 11:28:59;;;;;;;8.10;3.90;;;;;;;-0.36;98.38;99699.44;105129;1263;73670;-59
2024/01/16 11:31:33;;;;;;;11.70;4.40;;;;;;;-0.34;98.60;99705.77;105127;1260;81554;-59